sensor_id;sensor_type;location;lat;lon;timestamp;temperature;humidity
67586;SHT31;55785;47.946;20.540;2024-02-23T00:00:26;7.81;84.50
67586;SHT31;55785;47.946;20.540;2024-02-23T00:02:52;7.77;84.89
67586;SHT31;55785;47.946;20.540;2024-02-23T00:05:17;7.77;84.73
67586;SHT31;55785;47.946;20.540;2024-02-23T00:07:42;7.72;84.98
67586;SHT31;55785;47.946;20.540;2024-02-23T00:10:08;7.71;85.14
67586;SHT31;55785;47.946;20.540;2024-02-23T00:12:33;7.64;85.75
67586;SHT31;55785;47.946;20.540;2024-02-23T00:14:58;7.64;85.49
67586;SHT31;55785;47.946;20.540;2024-02-23T00:17:24;7.59;85.39
67586;SHT31;55785;47.946;20.540;2024-02-23T00:19:49;7.61;85.80
67586;SHT31;55785;47.946;20.540;2024-02-23T00:22:14;7.67;85.80
67586;SHT31;55785;47.946;20.540;2024-02-23T00:24:40;7.68;85.41
67586;SHT31;55785;47.946;20.540;2024-02-23T00:27:05;7.69;85.68
67586;SHT31;55785;47.946;20.540;2024-02-23T00:29:30;7.69;85.51
67586;SHT31;55785;47.946;20.540;2024-02-23T00:31:56;7.69;85.56
67586;SHT31;55785;47.946;20.540;2024-02-23T00:34:21;7.74;85.67
67586;SHT31;55785;47.946;20.540;2024-02-23T00:36:46;7.82;85.25
67586;SHT31;55785;47.946;20.540;2024-02-23T00:39:12;7.77;85.11
67586;SHT31;55785;47.946;20.540;2024-02-23T00:41:37;7.75;85.73
67586;SHT31;55785;47.946;20.540;2024-02-23T00:44:03;7.67;86.04
67586;SHT31;55785;47.946;20.540;2024-02-23T00:46:28;7.54;86.16
67586;SHT31;55785;47.946;20.540;2024-02-23T00:48:53;7.54;86.27
67586;SHT31;55785;47.946;20.540;2024-02-23T00:51:19;7.48;86.38
67586;SHT31;55785;47.946;20.540;2024-02-23T00:53:44;7.48;86.74
67586;SHT31;55785;47.946;20.540;2024-02-23T00:56:09;7.41;86.64
67586;SHT31;55785;47.946;20.540;2024-02-23T00:58:35;7.40;87.14
67586;SHT31;55785;47.946;20.540;2024-02-23T01:01:00;7.34;87.26
67586;SHT31;55785;47.946;20.540;2024-02-23T01:03:25;7.37;87.49
67586;SHT31;55785;47.946;20.540;2024-02-23T01:05:51;7.43;87.76
67586;SHT31;55785;47.946;20.540;2024-02-23T01:08:16;7.40;86.85
67586;SHT31;55785;47.946;20.540;2024-02-23T01:10:42;7.46;87.11
67586;SHT31;55785;47.946;20.540;2024-02-23T01:13:07;7.48;87.17
67586;SHT31;55785;47.946;20.540;2024-02-23T01:15:32;7.48;87.43
67586;SHT31;55785;47.946;20.540;2024-02-23T01:17:58;7.41;87.89
67586;SHT31;55785;47.946;20.540;2024-02-23T01:20:23;7.43;87.84
67586;SHT31;55785;47.946;20.540;2024-02-23T01:22:48;7.35;88.19
67586;SHT31;55785;47.946;20.540;2024-02-23T01:25:14;7.27;88.49
67586;SHT31;55785;47.946;20.540;2024-02-23T01:27:39;7.23;88.57
67586;SHT31;55785;47.946;20.540;2024-02-23T01:30:05;7.27;88.13
67586;SHT31;55785;47.946;20.540;2024-02-23T01:32:30;7.35;86.52
67586;SHT31;55785;47.946;20.540;2024-02-23T01:34:56;7.54;84.06
67586;SHT31;55785;47.946;20.540;2024-02-23T01:37:21;7.68;83.03
67586;SHT31;55785;47.946;20.540;2024-02-23T01:39:46;7.79;82.08
67586;SHT31;55785;47.946;20.540;2024-02-23T01:42:11;7.95;82.10
67586;SHT31;55785;47.946;20.540;2024-02-23T01:44:37;7.98;81.29
67586;SHT31;55785;47.946;20.540;2024-02-23T01:47:02;8.06;80.88
67586;SHT31;55785;47.946;20.540;2024-02-23T01:49:28;8.16;79.86
67586;SHT31;55785;47.946;20.540;2024-02-23T01:51:54;8.17;80.59
67586;SHT31;55785;47.946;20.540;2024-02-23T01:54:19;8.20;80.27
67586;SHT31;55785;47.946;20.540;2024-02-23T01:56:44;8.19;80.38
67586;SHT31;55785;47.946;20.540;2024-02-23T01:59:10;8.17;80.09
67586;SHT31;55785;47.946;20.540;2024-02-23T02:01:36;8.25;79.23
67586;SHT31;55785;47.946;20.540;2024-02-23T02:04:01;8.29;79.50
67586;SHT31;55785;47.946;20.540;2024-02-23T02:06:26;8.30;79.60
67586;SHT31;55785;47.946;20.540;2024-02-23T02:08:52;8.30;79.86
67586;SHT31;55785;47.946;20.540;2024-02-23T02:11:18;8.26;79.75
67586;SHT31;55785;47.946;20.540;2024-02-23T02:13:43;8.27;79.86
67586;SHT31;55785;47.946;20.540;2024-02-23T02:16:08;8.23;80.33
67586;SHT31;55785;47.946;20.540;2024-02-23T02:18:34;8.26;80.16
67586;SHT31;55785;47.946;20.540;2024-02-23T02:20:59;8.16;80.59
67586;SHT31;55785;47.946;20.540;2024-02-23T02:23:25;8.10;81.01
67586;SHT31;55785;47.946;20.540;2024-02-23T02:25:57;8.12;81.22
67586;SHT31;55785;47.946;20.540;2024-02-23T02:28:23;8.07;81.08
67586;SHT31;55785;47.946;20.540;2024-02-23T02:30:50;8.07;80.90
67586;SHT31;55785;47.946;20.540;2024-02-23T02:33:15;8.03;81.29
67586;SHT31;55785;47.946;20.540;2024-02-23T02:35:41;8.02;81.27
67586;SHT31;55785;47.946;20.540;2024-02-23T02:38:06;8.05;81.38
67586;SHT31;55785;47.946;20.540;2024-02-23T02:40:31;8.12;81.45
67586;SHT31;55785;47.946;20.540;2024-02-23T02:42:57;8.06;81.65
67586;SHT31;55785;47.946;20.540;2024-02-23T02:45:23;8.03;82.30
67586;SHT31;55785;47.946;20.540;2024-02-23T02:47:48;8.02;82.38
67586;SHT31;55785;47.946;20.540;2024-02-23T02:50:13;7.95;82.88
67586;SHT31;55785;47.946;20.540;2024-02-23T02:52:39;7.93;83.06
67586;SHT31;55785;47.946;20.540;2024-02-23T02:55:04;7.90;83.33
67586;SHT31;55785;47.946;20.540;2024-02-23T02:57:30;7.89;83.52
67586;SHT31;55785;47.946;20.540;2024-02-23T02:59:55;7.89;83.78
67586;SHT31;55785;47.946;20.540;2024-02-23T03:02:20;7.85;84.15
67586;SHT31;55785;47.946;20.540;2024-02-23T03:04:49;7.86;84.33
67586;SHT31;55785;47.946;20.540;2024-02-23T03:07:16;7.89;84.83
67586;SHT31;55785;47.946;20.540;2024-02-23T03:09:42;7.79;85.05
67586;SHT31;55785;47.946;20.540;2024-02-23T03:12:07;7.88;84.98
67586;SHT31;55785;47.946;20.540;2024-02-23T03:14:33;7.88;85.42
67586;SHT31;55785;47.946;20.540;2024-02-23T03:16:58;7.82;85.56
67586;SHT31;55785;47.946;20.540;2024-02-23T03:19:24;7.75;86.01
67586;SHT31;55785;47.946;20.540;2024-02-23T03:21:49;7.78;85.98
67586;SHT31;55785;47.946;20.540;2024-02-23T03:24:15;7.77;86.35
67586;SHT31;55785;47.946;20.540;2024-02-23T03:26:40;7.69;87.17
67586;SHT31;55785;47.946;20.540;2024-02-23T03:29:05;7.64;87.23
67586;SHT31;55785;47.946;20.540;2024-02-23T03:31:31;7.61;87.50
67586;SHT31;55785;47.946;20.540;2024-02-23T03:33:56;7.57;87.65
67586;SHT31;55785;47.946;20.540;2024-02-23T03:36:21;7.52;87.98
67586;SHT31;55785;47.946;20.540;2024-02-23T03:38:47;7.41;88.40
67586;SHT31;55785;47.946;20.540;2024-02-23T03:41:12;7.38;88.49
67586;SHT31;55785;47.946;20.540;2024-02-23T03:43:37;7.35;88.74
67586;SHT31;55785;47.946;20.540;2024-02-23T03:46:03;7.26;89.08
67586;SHT31;55785;47.946;20.540;2024-02-23T03:48:28;7.26;89.25
67586;SHT31;55785;47.946;20.540;2024-02-23T03:50:53;7.28;89.08
67586;SHT31;55785;47.946;20.540;2024-02-23T03:53:19;7.30;89.00
67586;SHT31;55785;47.946;20.540;2024-02-23T03:55:44;7.28;89.11
67586;SHT31;55785;47.946;20.540;2024-02-23T03:58:09;7.30;89.19
67586;SHT31;55785;47.946;20.540;2024-02-23T04:00:35;7.21;89.45
67586;SHT31;55785;47.946;20.540;2024-02-23T04:03:00;7.20;89.57
67586;SHT31;55785;47.946;20.540;2024-02-23T04:05:25;7.23;89.56
67586;SHT31;55785;47.946;20.540;2024-02-23T04:07:51;7.16;89.72
67586;SHT31;55785;47.946;20.540;2024-02-23T04:10:16;7.10;89.99
67586;SHT31;55785;47.946;20.540;2024-02-23T04:12:46;7.09;90.16
67586;SHT31;55785;47.946;20.540;2024-02-23T04:15:12;7.00;90.34
67586;SHT31;55785;47.946;20.540;2024-02-23T04:17:37;7.09;90.48
67586;SHT31;55785;47.946;20.540;2024-02-23T04:20:06;7.01;90.53
67586;SHT31;55785;47.946;20.540;2024-02-23T04:22:31;7.09;90.59
67586;SHT31;55785;47.946;20.540;2024-02-23T04:24:57;6.97;90.73
67586;SHT31;55785;47.946;20.540;2024-02-23T04:27:22;7.04;90.72
67586;SHT31;55785;47.946;20.540;2024-02-23T04:29:47;7.03;90.81
67586;SHT31;55785;47.946;20.540;2024-02-23T04:32:13;7.03;90.95
67586;SHT31;55785;47.946;20.540;2024-02-23T04:34:38;7.16;90.49
67586;SHT31;55785;47.946;20.540;2024-02-23T04:37:04;7.28;89.62
67586;SHT31;55785;47.946;20.540;2024-02-23T04:39:29;7.38;89.23
67586;SHT31;55785;47.946;20.540;2024-02-23T04:41:54;7.47;88.56
67586;SHT31;55785;47.946;20.540;2024-02-23T04:44:20;7.55;88.62
67586;SHT31;55785;47.946;20.540;2024-02-23T04:46:45;7.61;88.65
67586;SHT31;55785;47.946;20.540;2024-02-23T04:49:10;7.58;88.61
67586;SHT31;55785;47.946;20.540;2024-02-23T04:51:36;7.61;88.86
67586;SHT31;55785;47.946;20.540;2024-02-23T04:54:01;7.51;89.76
67586;SHT31;55785;47.946;20.540;2024-02-23T04:56:26;7.54;89.71
67586;SHT31;55785;47.946;20.540;2024-02-23T04:58:52;7.48;90.00
67586;SHT31;55785;47.946;20.540;2024-02-23T05:01:17;7.44;90.08
67586;SHT31;55785;47.946;20.540;2024-02-23T05:03:42;7.41;90.28
67586;SHT31;55785;47.946;20.540;2024-02-23T05:06:08;7.35;90.37
67586;SHT31;55785;47.946;20.540;2024-02-23T05:08:33;7.34;90.58
67586;SHT31;55785;47.946;20.540;2024-02-23T05:10:58;7.21;90.56
67586;SHT31;55785;47.946;20.540;2024-02-23T05:13:24;7.28;90.65
67586;SHT31;55785;47.946;20.540;2024-02-23T05:15:49;7.35;90.64
67586;SHT31;55785;47.946;20.540;2024-02-23T05:18:15;7.30;90.80
67586;SHT31;55785;47.946;20.540;2024-02-23T05:20:40;7.28;90.48
67586;SHT31;55785;47.946;20.540;2024-02-23T05:23:06;7.35;90.37
67586;SHT31;55785;47.946;20.540;2024-02-23T05:25:31;7.40;90.21
67586;SHT31;55785;47.946;20.540;2024-02-23T05:27:56;7.41;90.18
67586;SHT31;55785;47.946;20.540;2024-02-23T05:30:22;7.40;90.26
67586;SHT31;55785;47.946;20.540;2024-02-23T05:32:48;7.43;90.22
67586;SHT31;55785;47.946;20.540;2024-02-23T05:35:13;7.43;90.15
67586;SHT31;55785;47.946;20.540;2024-02-23T05:37:38;7.43;90.34
67586;SHT31;55785;47.946;20.540;2024-02-23T05:40:04;7.48;90.17
67586;SHT31;55785;47.946;20.540;2024-02-23T05:42:30;7.43;90.53
67586;SHT31;55785;47.946;20.540;2024-02-23T05:44:55;7.46;90.58
67586;SHT31;55785;47.946;20.540;2024-02-23T05:47:20;7.47;90.35
67586;SHT31;55785;47.946;20.540;2024-02-23T05:49:46;7.47;90.49
67586;SHT31;55785;47.946;20.540;2024-02-23T05:52:11;7.50;90.39
67586;SHT31;55785;47.946;20.540;2024-02-23T05:54:36;7.52;90.45
67586;SHT31;55785;47.946;20.540;2024-02-23T05:57:02;7.47;90.47
67586;SHT31;55785;47.946;20.540;2024-02-23T05:59:27;7.48;90.50
67586;SHT31;55785;47.946;20.540;2024-02-23T06:01:53;7.50;90.44
67586;SHT31;55785;47.946;20.540;2024-02-23T06:04:18;7.41;90.83
67586;SHT31;55785;47.946;20.540;2024-02-23T06:06:43;7.38;90.90
67586;SHT31;55785;47.946;20.540;2024-02-23T06:09:09;7.43;90.88
67586;SHT31;55785;47.946;20.540;2024-02-23T06:11:34;7.41;91.05
67586;SHT31;55785;47.946;20.540;2024-02-23T06:13:59;7.41;90.83
67586;SHT31;55785;47.946;20.540;2024-02-23T06:16:25;7.41;90.78
67586;SHT31;55785;47.946;20.540;2024-02-23T06:18:50;7.40;90.89
67586;SHT31;55785;47.946;20.540;2024-02-23T06:21:16;7.35;90.86
67586;SHT31;55785;47.946;20.540;2024-02-23T06:23:42;7.41;90.67
67586;SHT31;55785;47.946;20.540;2024-02-23T06:26:07;7.43;90.76
67586;SHT31;55785;47.946;20.540;2024-02-23T06:28:33;7.44;90.83
67586;SHT31;55785;47.946;20.540;2024-02-23T06:30:58;7.44;90.84
67586;SHT31;55785;47.946;20.540;2024-02-23T06:33:23;7.46;90.91
67586;SHT31;55785;47.946;20.540;2024-02-23T06:35:49;7.46;90.85
67586;SHT31;55785;47.946;20.540;2024-02-23T06:38:14;7.43;90.84
67586;SHT31;55785;47.946;20.540;2024-02-23T06:40:39;7.47;90.82
67586;SHT31;55785;47.946;20.540;2024-02-23T06:43:05;7.46;91.06
67586;SHT31;55785;47.946;20.540;2024-02-23T06:45:30;7.48;91.09
67586;SHT31;55785;47.946;20.540;2024-02-23T06:47:55;7.52;90.98
67586;SHT31;55785;47.946;20.540;2024-02-23T06:50:21;7.51;91.00
67586;SHT31;55785;47.946;20.540;2024-02-23T06:52:46;7.52;91.13
67586;SHT31;55785;47.946;20.540;2024-02-23T06:55:12;7.55;91.06
67586;SHT31;55785;47.946;20.540;2024-02-23T06:57:37;7.58;91.09
67586;SHT31;55785;47.946;20.540;2024-02-23T07:00:03;7.57;91.18
67586;SHT31;55785;47.946;20.540;2024-02-23T07:02:28;7.61;91.24
67586;SHT31;55785;47.946;20.540;2024-02-23T07:04:53;7.58;91.41
67586;SHT31;55785;47.946;20.540;2024-02-23T07:07:19;7.59;91.54
67586;SHT31;55785;47.946;20.540;2024-02-23T07:09:44;7.67;91.47
67586;SHT31;55785;47.946;20.540;2024-02-23T07:12:09;7.69;91.50
67586;SHT31;55785;47.946;20.540;2024-02-23T07:14:35;7.72;91.56
67586;SHT31;55785;47.946;20.540;2024-02-23T07:17:00;7.69;91.61
67586;SHT31;55785;47.946;20.540;2024-02-23T07:19:25;7.72;91.72
67586;SHT31;55785;47.946;20.540;2024-02-23T07:21:51;7.71;91.76
67586;SHT31;55785;47.946;20.540;2024-02-23T07:24:16;7.74;91.80
67586;SHT31;55785;47.946;20.540;2024-02-23T07:26:41;7.74;91.74
67586;SHT31;55785;47.946;20.540;2024-02-23T07:29:07;7.78;91.74
67586;SHT31;55785;47.946;20.540;2024-02-23T07:31:32;7.79;91.74
67586;SHT31;55785;47.946;20.540;2024-02-23T07:33:58;7.79;91.80
67586;SHT31;55785;47.946;20.540;2024-02-23T07:36:23;7.81;91.89
67586;SHT31;55785;47.946;20.540;2024-02-23T07:38:48;7.81;91.87
67586;SHT31;55785;47.946;20.540;2024-02-23T07:41:14;7.81;91.89
67586;SHT31;55785;47.946;20.540;2024-02-23T07:43:40;7.83;91.78
67586;SHT31;55785;47.946;20.540;2024-02-23T07:46:05;7.88;91.80
67586;SHT31;55785;47.946;20.540;2024-02-23T07:48:31;7.90;91.73
67586;SHT31;55785;47.946;20.540;2024-02-23T07:50:56;7.90;91.67
67586;SHT31;55785;47.946;20.540;2024-02-23T07:53:21;7.93;91.68
67586;SHT31;55785;47.946;20.540;2024-02-23T07:55:47;7.95;91.67
67586;SHT31;55785;47.946;20.540;2024-02-23T07:58:12;7.93;91.53
67586;SHT31;55785;47.946;20.540;2024-02-23T08:00:37;7.99;91.49
67586;SHT31;55785;47.946;20.540;2024-02-23T08:03:03;8.02;91.54
67586;SHT31;55785;47.946;20.540;2024-02-23T08:05:28;7.99;91.63
67586;SHT31;55785;47.946;20.540;2024-02-23T08:07:54;7.95;91.67
67586;SHT31;55785;47.946;20.540;2024-02-23T08:10:19;7.93;91.82
67586;SHT31;55785;47.946;20.540;2024-02-23T08:12:44;7.88;92.07
67586;SHT31;55785;47.946;20.540;2024-02-23T08:15:10;7.85;92.04
67586;SHT31;55785;47.946;20.540;2024-02-23T08:17:35;7.88;92.03
67586;SHT31;55785;47.946;20.540;2024-02-23T08:20:01;7.92;92.05
67586;SHT31;55785;47.946;20.540;2024-02-23T08:22:26;7.95;91.88
67586;SHT31;55785;47.946;20.540;2024-02-23T08:24:51;7.90;91.84
67586;SHT31;55785;47.946;20.540;2024-02-23T08:27:17;7.92;92.10
67586;SHT31;55785;47.946;20.540;2024-02-23T08:29:42;7.89;91.91
67586;SHT31;55785;47.946;20.540;2024-02-23T08:32:07;7.89;91.86
67586;SHT31;55785;47.946;20.540;2024-02-23T08:34:33;7.89;92.20
67586;SHT31;55785;47.946;20.540;2024-02-23T08:36:58;7.90;92.07
67586;SHT31;55785;47.946;20.540;2024-02-23T08:39:23;7.85;91.93
67586;SHT31;55785;47.946;20.540;2024-02-23T08:41:49;7.89;91.88
67586;SHT31;55785;47.946;20.540;2024-02-23T08:44:14;7.89;91.43
67586;SHT31;55785;47.946;20.540;2024-02-23T08:46:39;7.92;91.44
67586;SHT31;55785;47.946;20.540;2024-02-23T08:49:05;7.89;91.72
67586;SHT31;55785;47.946;20.540;2024-02-23T08:51:31;7.95;91.45
67586;SHT31;55785;47.946;20.540;2024-02-23T08:53:57;7.99;91.66
67586;SHT31;55785;47.946;20.540;2024-02-23T08:56:22;7.99;91.55
67586;SHT31;55785;47.946;20.540;2024-02-23T08:58:47;8.09;91.45
67586;SHT31;55785;47.946;20.540;2024-02-23T09:01:13;8.16;91.31
67586;SHT31;55785;47.946;20.540;2024-02-23T09:03:38;8.14;91.24
67586;SHT31;55785;47.946;20.540;2024-02-23T09:06:04;8.19;91.04
67586;SHT31;55785;47.946;20.540;2024-02-23T09:08:29;8.17;91.02
67586;SHT31;55785;47.946;20.540;2024-02-23T09:10:55;8.22;91.17
67586;SHT31;55785;47.946;20.540;2024-02-23T09:13:20;8.27;91.18
67586;SHT31;55785;47.946;20.540;2024-02-23T09:15:45;8.26;90.64
67586;SHT31;55785;47.946;20.540;2024-02-23T09:18:10;8.33;90.39
67586;SHT31;55785;47.946;20.540;2024-02-23T09:20:36;8.37;90.16
67586;SHT31;55785;47.946;20.540;2024-02-23T09:23:01;8.37;90.06
67586;SHT31;55785;47.946;20.540;2024-02-23T09:25:26;8.43;90.16
67586;SHT31;55785;47.946;20.540;2024-02-23T09:27:52;8.43;89.95
67586;SHT31;55785;47.946;20.540;2024-02-23T09:30:17;8.43;90.03
67586;SHT31;55785;47.946;20.540;2024-02-23T09:32:43;8.46;90.34
67586;SHT31;55785;47.946;20.540;2024-02-23T09:35:08;8.46;90.58
67586;SHT31;55785;47.946;20.540;2024-02-23T09:37:33;8.50;90.08
67586;SHT31;55785;47.946;20.540;2024-02-23T09:39:59;8.61;90.68
67586;SHT31;55785;47.946;20.540;2024-02-23T09:42:24;8.65;90.68
67586;SHT31;55785;47.946;20.540;2024-02-23T09:44:57;8.58;90.51
67586;SHT31;55785;47.946;20.540;2024-02-23T09:47:23;8.55;90.44
67586;SHT31;55785;47.946;20.540;2024-02-23T09:49:49;8.60;90.69
67586;SHT31;55785;47.946;20.540;2024-02-23T09:52:16;8.58;90.99
67586;SHT31;55785;47.946;20.540;2024-02-23T09:54:43;8.60;91.22
67586;SHT31;55785;47.946;20.540;2024-02-23T09:57:09;8.53;91.17
67586;SHT31;55785;47.946;20.540;2024-02-23T09:59:34;8.53;90.92
67586;SHT31;55785;47.946;20.540;2024-02-23T10:02:00;8.55;91.19
67586;SHT31;55785;47.946;20.540;2024-02-23T10:04:27;8.51;90.76
67586;SHT31;55785;47.946;20.540;2024-02-23T10:06:52;8.54;90.67
67586;SHT31;55785;47.946;20.540;2024-02-23T10:09:17;8.54;90.58
67586;SHT31;55785;47.946;20.540;2024-02-23T10:11:43;8.60;90.79
67586;SHT31;55785;47.946;20.540;2024-02-23T10:14:08;8.64;90.57
67586;SHT31;55785;47.946;20.540;2024-02-23T10:16:33;8.68;90.73
67586;SHT31;55785;47.946;20.540;2024-02-23T10:18:59;8.57;90.49
67586;SHT31;55785;47.946;20.540;2024-02-23T10:21:24;8.71;90.59
67586;SHT31;55785;47.946;20.540;2024-02-23T10:23:49;8.76;90.59
67586;SHT31;55785;47.946;20.540;2024-02-23T10:26:15;8.82;90.89
67586;SHT31;55785;47.946;20.540;2024-02-23T10:28:40;8.86;90.58
67586;SHT31;55785;47.946;20.540;2024-02-23T10:31:06;8.89;90.06
67586;SHT31;55785;47.946;20.540;2024-02-23T10:33:31;8.93;90.36
67586;SHT31;55785;47.946;20.540;2024-02-23T10:35:57;8.98;90.15
67586;SHT31;55785;47.946;20.540;2024-02-23T10:38:23;8.98;89.57
67586;SHT31;55785;47.946;20.540;2024-02-23T10:40:50;9.06;89.64
67586;SHT31;55785;47.946;20.540;2024-02-23T10:43:19;9.12;89.84
67586;SHT31;55785;47.946;20.540;2024-02-23T10:45:46;9.15;89.38
67586;SHT31;55785;47.946;20.540;2024-02-23T10:48:11;9.15;89.14
67586;SHT31;55785;47.946;20.540;2024-02-23T10:50:37;9.23;88.97
67586;SHT31;55785;47.946;20.540;2024-02-23T10:53:04;9.30;89.39
67586;SHT31;55785;47.946;20.540;2024-02-23T10:55:32;9.34;88.70
67586;SHT31;55785;47.946;20.540;2024-02-23T10:57:58;9.36;88.71
67586;SHT31;55785;47.946;20.540;2024-02-23T11:00:23;9.37;88.16
67586;SHT31;55785;47.946;20.540;2024-02-23T11:02:51;9.44;88.28
67586;SHT31;55785;47.946;20.540;2024-02-23T11:05:18;9.47;87.53
67586;SHT31;55785;47.946;20.540;2024-02-23T11:07:46;9.53;87.40
67586;SHT31;55785;47.946;20.540;2024-02-23T11:10:13;9.55;87.13
67586;SHT31;55785;47.946;20.540;2024-02-23T11:12:38;9.64;87.28
67586;SHT31;55785;47.946;20.540;2024-02-23T11:15:04;9.63;87.03
67586;SHT31;55785;47.946;20.540;2024-02-23T11:17:31;9.64;86.37
67586;SHT31;55785;47.946;20.540;2024-02-23T11:19:57;9.69;86.26
67586;SHT31;55785;47.946;20.540;2024-02-23T11:22:40;9.70;85.42
67586;SHT31;55785;47.946;20.540;2024-02-23T11:25:07;9.74;84.95
67586;SHT31;55785;47.946;20.540;2024-02-23T11:27:33;9.78;85.40
67586;SHT31;55785;47.946;20.540;2024-02-23T11:30:04;9.81;85.18
67586;SHT31;55785;47.946;20.540;2024-02-23T11:32:46;9.75;85.24
67586;SHT31;55785;47.946;20.540;2024-02-23T11:35:12;9.81;85.29
67586;SHT31;55785;47.946;20.540;2024-02-23T11:37:53;9.75;84.08
67586;SHT31;55785;47.946;20.540;2024-02-23T11:40:19;9.84;85.02
67586;SHT31;55785;47.946;20.540;2024-02-23T11:42:44;9.91;84.36
67586;SHT31;55785;47.946;20.540;2024-02-23T11:45:11;9.91;85.12
67586;SHT31;55785;47.946;20.540;2024-02-23T11:47:37;9.92;84.02
67586;SHT31;55785;47.946;20.540;2024-02-23T11:50:06;10.02;84.35
67586;SHT31;55785;47.946;20.540;2024-02-23T11:52:32;10.08;84.13
67586;SHT31;55785;47.946;20.540;2024-02-23T11:54:57;10.13;83.96
67586;SHT31;55785;47.946;20.540;2024-02-23T11:57:23;10.16;84.42
67586;SHT31;55785;47.946;20.540;2024-02-23T11:59:50;10.13;84.53
67586;SHT31;55785;47.946;20.540;2024-02-23T12:02:16;10.15;83.71
67586;SHT31;55785;47.946;20.540;2024-02-23T12:04:41;10.21;83.21
67586;SHT31;55785;47.946;20.540;2024-02-23T12:07:07;10.22;82.61
67586;SHT31;55785;47.946;20.540;2024-02-23T12:09:33;10.16;82.51
67586;SHT31;55785;47.946;20.540;2024-02-23T12:11:58;10.18;82.53
67586;SHT31;55785;47.946;20.540;2024-02-23T12:14:24;10.15;82.44
67586;SHT31;55785;47.946;20.540;2024-02-23T12:16:51;10.16;82.43
67586;SHT31;55785;47.946;20.540;2024-02-23T12:19:16;10.16;82.14
67586;SHT31;55785;47.946;20.540;2024-02-23T12:21:45;10.15;82.81
67586;SHT31;55785;47.946;20.540;2024-02-23T12:24:12;10.12;82.17
67586;SHT31;55785;47.946;20.540;2024-02-23T12:26:37;10.13;82.57
67586;SHT31;55785;47.946;20.540;2024-02-23T12:29:03;10.19;82.77
67586;SHT31;55785;47.946;20.540;2024-02-23T12:31:32;10.16;82.93
67586;SHT31;55785;47.946;20.540;2024-02-23T12:33:57;10.12;82.99
67586;SHT31;55785;47.946;20.540;2024-02-23T12:36:23;10.13;82.91
67586;SHT31;55785;47.946;20.540;2024-02-23T12:38:48;10.09;82.24
67586;SHT31;55785;47.946;20.540;2024-02-23T12:41:14;10.06;82.79
67586;SHT31;55785;47.946;20.540;2024-02-23T12:43:39;10.11;82.89
67586;SHT31;55785;47.946;20.540;2024-02-23T12:46:05;10.13;82.66
67586;SHT31;55785;47.946;20.540;2024-02-23T12:48:30;10.08;82.81
67586;SHT31;55785;47.946;20.540;2024-02-23T12:50:56;10.12;82.68
67586;SHT31;55785;47.946;20.540;2024-02-23T12:53:37;10.03;83.04
67586;SHT31;55785;47.946;20.540;2024-02-23T12:56:10;10.03;83.35
67586;SHT31;55785;47.946;20.540;2024-02-23T12:58:39;9.97;82.96
67586;SHT31;55785;47.946;20.540;2024-02-23T13:01:05;10.01;83.28
67586;SHT31;55785;47.946;20.540;2024-02-23T13:03:31;10.03;81.76
67586;SHT31;55785;47.946;20.540;2024-02-23T13:05:57;10.01;81.90
67586;SHT31;55785;47.946;20.540;2024-02-23T13:08:23;10.01;82.23
67586;SHT31;55785;47.946;20.540;2024-02-23T13:10:49;9.94;82.77
67586;SHT31;55785;47.946;20.540;2024-02-23T13:13:15;9.97;82.86
67586;SHT31;55785;47.946;20.540;2024-02-23T13:15:41;9.98;83.19
67586;SHT31;55785;47.946;20.540;2024-02-23T13:18:07;9.98;82.72
67586;SHT31;55785;47.946;20.540;2024-02-23T13:20:32;9.97;82.91
67586;SHT31;55785;47.946;20.540;2024-02-23T13:22:57;9.99;82.94
67586;SHT31;55785;47.946;20.540;2024-02-23T13:25:23;10.09;83.12
67586;SHT31;55785;47.946;20.540;2024-02-23T13:27:48;10.05;83.12
67586;SHT31;55785;47.946;20.540;2024-02-23T13:30:14;10.03;82.82
67586;SHT31;55785;47.946;20.540;2024-02-23T13:32:39;10.06;83.43
67586;SHT31;55785;47.946;20.540;2024-02-23T13:35:05;10.02;83.49
67586;SHT31;55785;47.946;20.540;2024-02-23T13:37:31;9.98;84.43
67586;SHT31;55785;47.946;20.540;2024-02-23T13:39:56;9.95;85.28
67586;SHT31;55785;47.946;20.540;2024-02-23T13:42:22;9.82;85.86
67586;SHT31;55785;47.946;20.540;2024-02-23T13:44:47;9.82;86.46
67586;SHT31;55785;47.946;20.540;2024-02-23T13:47:12;9.81;86.49
67586;SHT31;55785;47.946;20.540;2024-02-23T13:49:38;9.75;86.86
67586;SHT31;55785;47.946;20.540;2024-02-23T13:52:03;9.73;86.51
67586;SHT31;55785;47.946;20.540;2024-02-23T13:54:29;9.78;86.86
67586;SHT31;55785;47.946;20.540;2024-02-23T13:56:55;9.75;87.33
67586;SHT31;55785;47.946;20.540;2024-02-23T13:59:20;9.71;87.25
67586;SHT31;55785;47.946;20.540;2024-02-23T14:01:46;9.71;87.19
67586;SHT31;55785;47.946;20.540;2024-02-23T14:04:11;9.70;87.32
67586;SHT31;55785;47.946;20.540;2024-02-23T14:06:36;9.74;87.17
67586;SHT31;55785;47.946;20.540;2024-02-23T14:09:02;9.75;87.16
67586;SHT31;55785;47.946;20.540;2024-02-23T14:11:27;9.74;87.25
67586;SHT31;55785;47.946;20.540;2024-02-23T14:13:52;9.77;87.44
67586;SHT31;55785;47.946;20.540;2024-02-23T14:16:18;9.75;87.17
67586;SHT31;55785;47.946;20.540;2024-02-23T14:18:43;9.70;86.93
67586;SHT31;55785;47.946;20.540;2024-02-23T14:21:08;9.69;86.97
67586;SHT31;55785;47.946;20.540;2024-02-23T14:23:34;9.71;87.16
67586;SHT31;55785;47.946;20.540;2024-02-23T14:25:59;9.71;87.44
67586;SHT31;55785;47.946;20.540;2024-02-23T14:28:25;9.65;87.59
67586;SHT31;55785;47.946;20.540;2024-02-23T14:30:50;9.65;87.32
67586;SHT31;55785;47.946;20.540;2024-02-23T14:33:15;9.64;87.54
67586;SHT31;55785;47.946;20.540;2024-02-23T14:35:41;9.69;87.63
67586;SHT31;55785;47.946;20.540;2024-02-23T14:38:06;9.65;87.56
67586;SHT31;55785;47.946;20.540;2024-02-23T14:40:31;9.61;87.26
67586;SHT31;55785;47.946;20.540;2024-02-23T14:42:57;9.61;86.65
67586;SHT31;55785;47.946;20.540;2024-02-23T14:45:22;9.63;86.14
67586;SHT31;55785;47.946;20.540;2024-02-23T14:47:47;9.65;86.21
67586;SHT31;55785;47.946;20.540;2024-02-23T14:50:13;9.65;85.86
67586;SHT31;55785;47.946;20.540;2024-02-23T14:52:38;9.73;86.03
67586;SHT31;55785;47.946;20.540;2024-02-23T14:55:04;9.61;86.04
67586;SHT31;55785;47.946;20.540;2024-02-23T14:57:29;9.60;86.92
67586;SHT31;55785;47.946;20.540;2024-02-23T14:59:54;9.47;86.24
67586;SHT31;55785;47.946;20.540;2024-02-23T15:02:22;9.47;87.03
67586;SHT31;55785;47.946;20.540;2024-02-23T15:04:48;9.47;86.65
67586;SHT31;55785;47.946;20.540;2024-02-23T15:07:13;9.57;85.43
67586;SHT31;55785;47.946;20.540;2024-02-23T15:09:39;9.60;85.59
67586;SHT31;55785;47.946;20.540;2024-02-23T15:12:05;9.60;85.98
67586;SHT31;55785;47.946;20.540;2024-02-23T15:14:30;9.61;86.43
67586;SHT31;55785;47.946;20.540;2024-02-23T15:16:55;9.65;86.48
67586;SHT31;55785;47.946;20.540;2024-02-23T15:19:21;9.61;87.03